Latest Weather Observations for Applethorpe

IDN60801

Issued at 5:03 pm EDT Tuesday 26 March 2019 (issued every 10 minutes, with the page automatically refreshed every 10 minutes)

About weather observations | Map of weather stations | Latest weather observations for NSW | Other Formats
Station Details ID: 041175 Name: APPLETHORPE Lat: -28.62 Lon: 151.95 Height: 871.6 m
Data from the previous 72 hours. | See also: Recent months at Applethorpe
Date/Time
EDT
Temp
°C
App
Temp
°C
Dew
Point
°C
Rel
Hum
%
Delta-T
°C
Wind Press
QNH
hPa
Press
MSL
hPa
Rain since
9am
mm
Dir  Spd
km/h
Gust
km/h
Spd
kts
Gust
kts
26/05:00pm 22.9 23.3 14.7 60 5.0 SW 6 13 3 7 1018.7 1014.6 0.2
26/04:30pm 23.1 23.3 14.7 59 5.2 WSW 7 13 4 7 1018.9 1014.9 0.2
26/04:00pm 23.0 23.4 14.8 60 5.0 W 6 11 3 6 1018.7 1014.6 0.2
26/03:30pm 23.1 22.3 14.1 57 5.5 WSW 11 20 6 11 1018.9 1014.9 0.2
26/03:00pm 23.6 23.5 13.8 54 5.9 W 7 17 4 9 1018.7 1014.6 0.2
26/02:30pm 23.8 25.0 16.8 65 4.5 SSW 6 9 3 5 1018.8 1014.7 0.2
26/02:00pm 22.1 23.5 17.7 76 2.8 SSW 7 11 4 6 1019.1 1015.1 0.2
26/01:30pm 21.4 22.5 18.0 81 2.2 SSW 9 17 5 9 1019.4 1015.4 0.2
26/01:00pm 21.1 23.2 19.0 88 1.4 SW 6 13 3 7 1019.7 1015.6 0.0
26/12:30pm 20.7 22.5 18.3 86 1.5 WSW 6 11 3 6 1019.9 1015.9 0.0
26/12:00pm 20.8 22.3 18.0 84 1.8 WSW 7 13 4 7 1020.2 1016.2 0.0
26/11:30am 20.9 22.1 18.3 85 1.7 SW 9 17 5 9 1020.2 1016.2 0.0
26/11:00am 21.6 22.7 18.0 80 2.3 WSW 9 15 5 8 1020.1 1016.1 0.0
26/10:30am 22.2 24.0 18.4 79 2.5 W 6 9 3 5 1019.9 1015.9 0.0
26/10:00am 21.6 23.4 18.2 81 2.2 NW 6 9 3 5 1019.9 1015.9 0.0
26/09:30am 21.6 23.6 17.8 79 2.4 WNW 4 9 2 5 1019.7 1015.6 0.0
26/09:00am 21.0 22.6 16.8 77 2.6 W 4 9 2 5 1019.8 1015.7 0.0
26/08:30am 20.7 22.5 17.5 82 2.0 W 4 6 2 3 1019.7 1015.6 0.0
26/08:00am 20.6 23.6 20.1 97 0.3 WNW 4 7 2 4 1019.5 1015.5 0.0
26/07:30am 20.5 23.6 20.2 98 0.2 WNW 4 7 2 4 1019.3 1015.3 0.0
26/07:00am 20.4 23.6 19.7 96 0.5 WSW 2 4 1 2 1019.2 1015.2 0.0
26/06:30am 20.5 23.4 19.8 96 0.5 W 4 9 2 5 1019.0 1015.0 0.0
26/06:00am 20.5 23.2 19.5 94 0.7 NNW 4 9 2 5 1018.8 1014.7 0.0
26/05:30am 19.7 22.9 18.9 95 0.5 CALM 0 0 0 0 1018.5 1014.4 0.0
26/05:00am 19.4 22.4 18.4 94 0.6 CALM 0 2 0 1 1018.0 1014.0 0.0
26/04:30am 19.4 22.4 18.4 94 0.6 CALM 0 0 0 0 1018.1 1014.1 0.0
26/04:00am 19.5 22.4 18.3 93 0.8 CALM 0 2 0 1 1018.2 1014.2 0.0
26/03:30am 20.0 22.9 18.1 89 1.2 CALM 0 0 0 0 1018.2 1014.2 0.0
26/03:00am 20.1 22.4 17.7 86 1.5 SW 2 6 1 3 1018.6 1014.5 0.0
26/02:30am 20.2 22.8 17.4 84 1.8 CALM 0 0 0 0 1018.6 1014.5 0.0
26/02:00am 20.6 23.0 17.0 80 2.3 CALM 0 0 0 0 1018.6 1014.5 0.0
26/01:30am 20.8 22.9 16.2 75 2.9 CALM 0 0 0 0 1018.7 1014.6 0.0
26/01:00am 21.1 23.1 16.1 73 3.1 CALM 0 0 0 0 1018.6 1014.5 0.0
26/12:30am 22.0 23.8 15.6 67 4.0 CALM 0 0 0 0 1018.8 1014.7 0.0
26/12:00am 23.3 24.1 15.9 63 4.6 N 6 9 3 5 1018.8 1014.7 0.0
 
Date/Time
EDT
Temp
°C
App
Temp
°C
Dew
Point
°C
Rel
Hum
%
Delta-T
°C
Wind Press
QNH
hPa
Press
MSL
hPa
Rain since
9am
mm
Dir  Spd
km/h
Gust
km/h
Spd
kts
Gust
kts
25/11:30pm 21.1 23.3 16.5 75 2.9 CALM 0 2 0 1 1018.9 1014.9 0.0
25/11:00pm 21.4 23.4 16.1 72 3.3 CALM 0 0 0 0 1019.0 1015.0 0.0
25/10:30pm 21.1 23.1 16.1 73 3.1 CALM 0 0 0 0 1019.1 1015.1 0.0
25/10:00pm 21.6 23.2 15.9 70 3.5 NE 2 6 1 3 1018.9 1014.9 0.0
25/09:30pm 21.8 23.9 16.3 71 3.5 CALM 0 0 0 0 1018.8 1014.7 0.0
25/09:00pm 22.4 24.4 16.0 67 4.0 CALM 0 0 0 0 1018.8 1014.7 0.0
25/08:30pm 22.9 24.6 15.2 62 4.8 CALM 0 0 0 0 1018.7 1014.6 0.0
25/08:00pm 23.2 24.9 15.3 61 4.9 CALM 0 2 0 1 1018.6 1014.5 0.0
25/07:30pm 24.1 25.3 14.8 56 5.8 WSW 2 2 1 1 1018.2 1014.2 0.0
25/07:00pm 25.4 25.9 13.9 49 7.0 SW 4 6 2 3 1018.0 1014.0 0.0
25/06:30pm 26.5 26.3 13.6 45 7.9 SW 7 13 4 7 1017.8 1013.8 0.0
25/06:00pm 26.9 26.6 13.3 43 8.3 SW 7 13 4 7 1017.5 1013.4 0.0
25/05:30pm 27.6 27.3 12.8 40 9.0 WSW 6 9 3 5 1017.3 1013.2 0.0
25/05:00pm 28.4 26.8 10.1 32 10.7 WNW 9 19 5 10 1017.0 1013.0 0.0
25/04:30pm 29.1 28.0 10.7 32 10.9 NW 7 22 4 12 1016.9 1012.9 0.0
25/04:00pm 29.3 28.7 11.8 34 10.5 WNW 6 9 3 5 1016.9 1012.9 0.0
25/03:30pm 28.4 27.3 11.9 36 9.9 WNW 9 20 5 11 1017.0 1013.0 0.0
25/03:00pm 29.1 28.9 12.9 37 9.9 NW 6 9 3 5 1017.2 1013.1 0.0
25/02:30pm 28.9 27.3 11.5 34 10.4 WNW 11 22 6 12 1017.3 1013.2 0.0
25/02:00pm 29.1 27.9 11.6 33 10.5 NW 9 19 5 10 1017.8 1013.8 0.0
25/01:30pm 27.9 25.6 10.6 34 10.2 W 13 24 7 13 1018.5 1014.4 0.0
25/01:00pm 28.3 26.3 10.0 32 10.6 NW 11 22 6 12 1018.7 1014.6 0.0
25/12:30pm 28.4 26.5 10.6 33 10.5 WNW 11 20 6 11 1019.0 1015.0 0.0
25/12:00pm 28.0 26.3 11.1 35 10.0 NW 11 24 6 13 1019.4 1015.4 0.0
25/11:30am 27.8 26.4 10.9 35 10.0 WNW 9 20 5 11 1019.7 1015.6 0.0
25/11:00am 26.9 25.8 10.6 36 9.5 NW 7 17 4 9 1019.9 1015.9 0.0
25/10:30am 25.5 24.3 12.7 45 7.7 WNW 11 19 6 10 1020.1 1016.1 0.0
25/10:00am 25.4 24.7 13.3 47 7.3 NW 9 20 5 11 1020.1 1016.1 0.0
25/09:30am 24.8 24.6 13.7 50 6.8 NW 7 17 4 9 1020.0 1016.0 0.0
25/09:00am 24.1 24.1 15.1 57 5.6 NNW 9 19 5 10 1019.8 1015.7 0.0
25/08:30am 22.2 22.6 16.2 69 3.8 NW 9 19 5 10 1019.5 1015.5 0.0
25/08:00am 20.9 22.4 16.7 77 2.6 NW 4 9 2 5 1019.2 1015.2 0.0
25/07:30am 20.1 21.9 16.5 80 2.3 N 2 4 1 2 1018.9 1014.9 0.0
25/07:00am 19.9 21.6 16.2 79 2.3 NNW 2 6 1 3 1018.6 1014.5 0.0
25/06:30am 20.3 21.3 16.3 78 2.5 NNW 6 11 3 6 1018.5 1014.4 0.0
25/06:00am 19.9 21.4 15.7 77 2.6 W 2 6 1 3 1018.3 1014.3 0.0
25/05:30am 20.5 21.2 15.7 74 3.0 NNW 6 9 3 5 1017.8 1013.8 0.0
25/05:00am 20.7 21.3 15.9 74 3.0 N 7 11 4 6 1017.7 1013.6 0.0
25/04:30am 20.5 21.2 15.5 73 3.1 N 6 11 3 6 1017.6 1013.5 0.0
25/04:00am 20.8 20.9 15.4 71 3.3 N 9 15 5 8 1017.5 1013.4 0.0
25/03:30am 21.5 22.0 15.6 69 3.7 N 7 11 4 6 1017.5 1013.4 0.0
25/03:00am 21.7 21.4 15.5 68 3.8 N 11 20 6 11 1017.5 1013.4 0.0
25/02:30am 22.1 21.9 15.7 67 4.0 N 11 19 6 10 1017.9 1013.9 0.0
25/02:00am 22.3 22.2 16.1 68 3.9 N 11 20 6 11 1018.0 1014.0 0.0
25/01:30am 22.2 22.0 16.7 71 3.5 N 13 20 7 11 1018.0 1014.0 0.0
25/01:00am 22.5 22.3 16.8 70 3.6 N 13 17 7 9 1018.2 1014.2 0.0
25/12:30am 22.8 22.6 16.6 68 3.9 N 13 20 7 11 1018.3 1014.3 0.0
25/12:00am 23.0 22.6 16.3 66 4.2 N 13 17 7 9 1018.3 1014.3 0.0
 
Date/Time
EDT
Temp
°C
App
Temp
°C
Dew
Point
°C
Rel
Hum
%
Delta-T
°C
Wind Press
QNH
hPa
Press
MSL
hPa
Rain since
9am
mm
Dir  Spd
km/h
Gust
km/h
Spd
kts
Gust
kts
24/11:30pm 23.3 23.2 15.9 63 4.6 N 11 17 6 9 1018.3 1014.3 0.0
24/11:00pm 23.4 23.6 15.7 62 4.8 N 9 15 5 8 1018.3 1014.3 0.0
24/10:30pm 23.9 23.6 15.4 59 5.3 N 11 19 6 10 1018.5 1014.4 0.0
24/10:00pm 24.3 23.8 15.0 56 5.8 N 11 17 6 9 1018.2 1014.2 0.0
24/09:30pm 25.0 23.9 14.2 51 6.6 N 13 19 7 10 1018.0 1014.0 0.0
24/09:00pm 22.2 22.5 14.6 62 4.6 N 6 11 3 6 1017.8 1013.8 0.0
24/08:30pm 21.7 22.1 13.6 60 4.9 N 4 6 2 3 1017.8 1013.8 0.0
24/08:00pm 23.9 23.8 13.4 51 6.3 N 6 7 3 4 1017.6 1013.5 0.0
24/07:30pm 24.4 24.7 13.3 50 6.7 N 4 7 2 4 1017.4 1013.3 0.0
24/07:00pm 26.3 26.8 12.7 43 8.2 NNW 2 4 1 2 1017.0 1013.0 0.0
24/06:30pm 28.7 27.9 11.7 35 10.2 NNW 7 13 4 7 1016.8 1012.8 0.0
24/06:00pm 29.8 29.2 11.8 33 10.9 WSW 6 9 3 5 1016.8 1012.8 0.0
24/05:30pm 29.6 29.5 12.1 34 10.6 NW 4 7 2 4 1016.9 1012.9 0.0
24/05:00pm 29.2 29.1 12.2 35 10.3 WSW 4 7 2 4 1016.9 1012.9 0.0
24/04:30pm 29.8 28.8 12.3 34 10.6 W 9 13 5 7 1017.0 1013.0 0.0
24/04:00pm 30.3 29.2 11.8 32 11.2 SW 9 17 5 9 1017.0 1013.0 0.0
24/03:30pm 29.3 27.9 12.3 35 10.3 WSW 11 17 6 9 1017.3 1013.2 0.0
24/03:00pm 29.5 29.3 12.9 36 10.2 WSW 6 9 3 5 1017.5 1013.4 0.0
24/02:30pm 31.0 30.3 13.3 34 11.0 WNW 9 15 5 8 1017.9 1013.9 0.0
24/02:00pm 29.9 29.4 12.8 35 10.5 W 7 19 4 10 1018.2 1014.2 0.0
24/01:30pm 29.6 28.4 12.9 35 10.2 WNW 11 20 6 11 1018.8 1014.7 0.0
24/01:00pm 29.1 27.5 12.9 37 9.9 WSW 13 20 7 11 1019.3 1015.3 0.0
24/12:30pm 28.8 28.2 14.6 42 8.9 WSW 11 22 6 12 1019.7 1015.6 0.0
24/12:00pm 28.5 28.3 15.8 46 8.1 WSW 11 22 6 12 1020.2 1016.2 0.0
24/11:30am 28.3 28.1 15.6 46 8.1 W 11 22 6 12 1020.4 1016.4 0.0
24/11:00am 27.3 27.1 15.7 49 7.3 W 11 20 6 11 1020.6 1016.6 0.0
24/10:30am 26.8 26.7 16.1 52 6.8 WSW 11 19 6 10 1020.7 1016.7 0.0
24/10:00am 25.7 27.0 17.6 61 5.2 SW 7 13 4 7 1020.6 1016.6 0.0
24/09:30am 24.3 26.0 18.0 68 4.1 WSW 6 13 3 7 1020.5 1016.5 0.0
24/09:00am 22.1 24.6 18.1 78 2.6 WSW 2 4 1 2 1020.3 1016.3 0.0
24/08:30am 20.2 23.2 18.5 90 1.1 CALM 0 0 0 0 1020.1 1016.1 0.0
24/08:00am 17.8 20.4 17.6 99 0.1 CALM 0 0 0 0 1019.9 1015.9 0.0
24/07:30am 17.0 19.3 16.7 98 0.2 CALM 0 2 0 1 1019.8 1015.7 0.0
24/07:00am 16.8 18.5 16.2 96 0.4 SSW 2 6 1 3 1019.4 1015.4 0.0
24/06:30am 17.1 18.8 15.3 89 1.1 CALM 0 2 0 1 1019.1 1015.1 0.0
24/06:00am 19.1 20.8 16.1 83 1.9 N 2 4 1 2 1018.9 1014.9 0.0
24/05:30am 19.8 21.2 16.4 81 2.1 WNW 4 7 2 4 1018.6 1014.5 0.0
24/05:00am 19.9 21.2 16.2 79 2.3 NW 4 7 2 4 1018.3 1014.3 0.0
24/04:30am 20.2 21.5 16.2 78 2.5 NNW 4 6 2 3 1018.2 1014.2 0.0
24/04:00am 20.9 22.3 16.3 75 2.9 NNW 4 7 2 4 1018.2 1014.2 0.0
24/03:30am 21.1 22.2 16.5 75 2.9 NNW 6 9 3 5 1018.0 1014.0 0.0
24/03:00am 20.7 22.1 17.9 84 1.8 N 7 9 4 5 1018.0 1014.0 0.0
24/02:56am 20.6 22.3 18.5 88 1.4 N 7 9 4 5 1018.0 1014.0 0.0
24/02:30am 15.6 17.3 15.3 98 0.2 CALM 0 4 0 2 1018.5 1014.4 0.0
24/02:00am 15.9 17.7 15.4 97 0.3 CALM 0 0 0 0 1018.6 1014.5 0.0
24/01:30am 16.2 17.5 15.2 94 0.6 NE 2 6 1 3 1018.6 1014.5 0.0
24/01:00am 16.5 18.2 15.2 92 0.8 CALM 0 0 0 0 1018.7 1014.6 0.0
24/12:30am 16.9 18.6 15.1 89 1.1 CALM 0 0 0 0 1018.9 1014.9 0.0
24/12:00am 17.4 19.1 15.2 87 1.3 CALM 0 0 0 0 1019.1 1015.1 0.0
 
Date/Time
EDT
Temp
°C
App
Temp
°C
Dew
Point
°C
Rel
Hum
%
Delta-T
°C
Wind Press
QNH
hPa
Press
MSL
hPa
Rain since
9am
mm
Dir  Spd
km/h
Gust
km/h
Spd
kts
Gust
kts
23/11:30pm 17.9 19.6 15.3 85 1.6 CALM 0 2 0 1 1019.3 1015.3 0.0
23/11:00pm 18.4 19.7 15.1 81 2.0 N 2 6 1 3 1019.3 1015.3 0.0
23/10:30pm 19.4 21.0 14.9 75 2.7 CALM 0 0 0 0 1019.5 1015.5 0.0
23/10:00pm 21.4 22.0 15.3 68 3.8 NE 6 9 3 5 1019.3 1015.3 0.0
23/09:30pm 21.6 22.6 15.4 68 3.8 ENE 4 6 2 3 1019.1 1015.1 0.0
23/09:00pm 22.1 23.2 15.7 67 4.0 NE 4 7 2 4 1018.7 1014.6 0.0
23/08:30pm 21.9 23.8 15.7 68 3.9 CALM 0 0 0 0 1018.7 1014.6 0.0
23/08:00pm 22.2 24.5 16.7 71 3.5 CALM 0 0 0 0 1018.5 1014.4 0.0
23/07:30pm 22.6 24.6 15.9 66 4.2 CALM 0 0 0 0 1017.9 1013.9 0.0
23/07:00pm 25.1 26.1 14.3 51 6.6 NW 2 4 1 2 1017.7 1013.6 0.0
23/06:30pm 27.6 28.1 13.9 43 8.5 NW 4 9 2 5 1017.6 1013.5 0.0

Other formats

Comma delimited format used in spreadsheet applications
http://www.bom.gov.au/fwo/IDN60801/IDN60801.94553.axf

JavaScript Object Notation format (JSON) in row-major order
http://www.bom.gov.au/fwo/IDN60801/IDN60801.94553.json

Data quality

Most of these data are generated automatically and are frequently updated. Quality checks on data are not normally performed. It is possible for incorrect values to appear. Refer to information at About Latest Weather Observations and please check the disclaimer before using these data.